sensor_id;sensor_type;location;lat;lon;timestamp;temperature;humidity
23311;DHT22;11828;51.508;18.118;2023-07-20T00:01:26;36.50;26.60
23311;DHT22;11828;51.508;18.118;2023-07-20T00:03:52;36.50;26.60
23311;DHT22;11828;51.508;18.118;2023-07-20T00:06:25;36.50;26.70
23311;DHT22;11828;51.508;18.118;2023-07-20T00:08:54;36.50;26.70
23311;DHT22;11828;51.508;18.118;2023-07-20T00:11:25;36.50;26.90
23311;DHT22;11828;51.508;18.118;2023-07-20T00:13:53;36.50;27.00
23311;DHT22;11828;51.508;18.118;2023-07-20T00:16:19;36.40;27.10
23311;DHT22;11828;51.508;18.118;2023-07-20T00:18:45;36.40;27.50
23311;DHT22;11828;51.508;18.118;2023-07-20T00:21:11;36.30;27.60
23311;DHT22;11828;51.508;18.118;2023-07-20T00:23:38;36.30;27.80
23311;DHT22;11828;51.508;18.118;2023-07-20T00:26:04;36.20;28.00
23311;DHT22;11828;51.508;18.118;2023-07-20T00:28:30;36.10;28.20
23311;DHT22;11828;51.508;18.118;2023-07-20T00:30:58;36.00;29.00
23311;DHT22;11828;51.508;18.118;2023-07-20T00:33:44;35.90;29.10
23311;DHT22;11828;51.508;18.118;2023-07-20T00:36:11;35.90;29.60
23311;DHT22;11828;51.508;18.118;2023-07-20T00:38:37;35.80;29.50
23311;DHT22;11828;51.508;18.118;2023-07-20T00:41:03;35.80;29.90
23311;DHT22;11828;51.508;18.118;2023-07-20T00:43:29;35.50;29.40
23311;DHT22;11828;51.508;18.118;2023-07-20T00:45:56;35.50;29.60
23311;DHT22;11828;51.508;18.118;2023-07-20T00:48:22;35.40;29.80
23311;DHT22;11828;51.508;18.118;2023-07-20T00:50:48;35.30;30.00
23311;DHT22;11828;51.508;18.118;2023-07-20T00:53:14;35.20;29.90
23311;DHT22;11828;51.508;18.118;2023-07-20T00:55:41;35.20;30.00
23311;DHT22;11828;51.508;18.118;2023-07-20T00:58:08;35.20;30.30
23311;DHT22;11828;51.508;18.118;2023-07-20T01:00:34;35.20;30.20
23311;DHT22;11828;51.508;18.118;2023-07-20T01:03:01;35.20;30.20
23311;DHT22;11828;51.508;18.118;2023-07-20T01:06:28;35.10;30.00
23311;DHT22;11828;51.508;18.118;2023-07-20T01:08:43;35.10;31.00
23311;DHT22;11828;51.508;18.118;2023-07-20T01:11:21;35.20;31.20
23311;DHT22;11828;51.508;18.118;2023-07-20T01:13:50;35.20;31.20
23311;DHT22;11828;51.508;18.118;2023-07-20T01:16:17;35.30;31.90
23311;DHT22;11828;51.508;18.118;2023-07-20T01:18:43;35.20;31.80
23311;DHT22;11828;51.508;18.118;2023-07-20T01:21:15;35.00;31.70
23311;DHT22;11828;51.508;18.118;2023-07-20T01:24:11;34.90;32.30
23311;DHT22;11828;51.508;18.118;2023-07-20T01:27:13;34.70;32.70
23311;DHT22;11828;51.508;18.118;2023-07-20T01:32:41;34.40;33.60
23311;DHT22;11828;51.508;18.118;2023-07-20T01:35:10;34.30;34.50
23311;DHT22;11828;51.508;18.118;2023-07-20T01:37:43;34.20;35.10
23311;DHT22;11828;51.508;18.118;2023-07-20T01:40:11;34.00;34.60
23311;DHT22;11828;51.508;18.118;2023-07-20T01:42:44;33.80;35.00
23311;DHT22;11828;51.508;18.118;2023-07-20T01:45:12;33.60;36.10
23311;DHT22;11828;51.508;18.118;2023-07-20T01:47:38;33.60;35.90
23311;DHT22;11828;51.508;18.118;2023-07-20T01:50:04;33.50;36.40
23311;DHT22;11828;51.508;18.118;2023-07-20T01:52:32;33.40;36.80
23311;DHT22;11828;51.508;18.118;2023-07-20T01:54:58;33.10;36.40
23311;DHT22;11828;51.508;18.118;2023-07-20T01:57:24;33.10;36.80
23311;DHT22;11828;51.508;18.118;2023-07-20T01:59:50;33.00;37.40
23311;DHT22;11828;51.508;18.118;2023-07-20T02:02:16;32.90;37.10
23311;DHT22;11828;51.508;18.118;2023-07-20T02:04:44;32.90;37.80
23311;DHT22;11828;51.508;18.118;2023-07-20T02:07:10;32.80;37.60
23311;DHT22;11828;51.508;18.118;2023-07-20T02:09:36;32.70;37.70
23311;DHT22;11828;51.508;18.118;2023-07-20T02:12:02;32.70;38.10
23311;DHT22;11828;51.508;18.118;2023-07-20T02:14:29;32.60;38.00
23311;DHT22;11828;51.508;18.118;2023-07-20T02:16:55;32.60;38.10
23311;DHT22;11828;51.508;18.118;2023-07-20T02:19:25;32.50;38.50
23311;DHT22;11828;51.508;18.118;2023-07-20T02:21:52;32.50;38.40
23311;DHT22;11828;51.508;18.118;2023-07-20T02:24:18;32.60;39.00
23311;DHT22;11828;51.508;18.118;2023-07-20T02:26:45;32.60;38.70
23311;DHT22;11828;51.508;18.118;2023-07-20T02:29:11;32.60;38.60
23311;DHT22;11828;51.508;18.118;2023-07-20T02:31:38;32.60;38.40
23311;DHT22;11828;51.508;18.118;2023-07-20T02:34:08;32.60;38.50
23311;DHT22;11828;51.508;18.118;2023-07-20T02:36:35;32.60;38.50
23311;DHT22;11828;51.508;18.118;2023-07-20T02:39:01;32.70;38.60
23311;DHT22;11828;51.508;18.118;2023-07-20T02:41:32;32.70;38.90
23311;DHT22;11828;51.508;18.118;2023-07-20T02:43:59;32.80;39.10
23311;DHT22;11828;51.508;18.118;2023-07-20T02:46:25;32.80;38.10
23311;DHT22;11828;51.508;18.118;2023-07-20T02:48:51;33.00;39.00
23311;DHT22;11828;51.508;18.118;2023-07-20T02:51:17;33.00;38.80
23311;DHT22;11828;51.508;18.118;2023-07-20T02:53:43;33.10;38.90
23311;DHT22;11828;51.508;18.118;2023-07-20T02:56:10;33.20;38.90
23311;DHT22;11828;51.508;18.118;2023-07-20T02:58:40;33.20;38.30
23311;DHT22;11828;51.508;18.118;2023-07-20T03:01:09;33.20;38.00
23311;DHT22;11828;51.508;18.118;2023-07-20T03:03:36;33.20;37.80
23311;DHT22;11828;51.508;18.118;2023-07-20T03:06:05;33.10;37.70
23311;DHT22;11828;51.508;18.118;2023-07-20T03:08:31;33.00;38.00
23311;DHT22;11828;51.508;18.118;2023-07-20T03:10:58;32.80;38.10
23311;DHT22;11828;51.508;18.118;2023-07-20T03:13:24;32.60;38.40
23311;DHT22;11828;51.508;18.118;2023-07-20T03:15:52;32.60;38.60
23311;DHT22;11828;51.508;18.118;2023-07-20T03:18:18;32.50;38.40
23311;DHT22;11828;51.508;18.118;2023-07-20T03:20:45;32.50;38.70
23311;DHT22;11828;51.508;18.118;2023-07-20T03:23:11;32.50;38.50
23311;DHT22;11828;51.508;18.118;2023-07-20T03:25:38;32.60;38.60
23311;DHT22;11828;51.508;18.118;2023-07-20T03:28:04;32.50;38.60
23311;DHT22;11828;51.508;18.118;2023-07-20T03:30:31;32.50;38.50
23311;DHT22;11828;51.508;18.118;2023-07-20T03:32:57;32.50;38.70
23311;DHT22;11828;51.508;18.118;2023-07-20T03:35:23;32.50;38.80
23311;DHT22;11828;51.508;18.118;2023-07-20T03:37:49;32.50;38.70
23311;DHT22;11828;51.508;18.118;2023-07-20T03:40:15;32.70;38.80
23311;DHT22;11828;51.508;18.118;2023-07-20T03:42:42;32.70;38.40
23311;DHT22;11828;51.508;18.118;2023-07-20T03:45:08;32.80;38.30
23311;DHT22;11828;51.508;18.118;2023-07-20T03:47:35;32.80;38.30
23311;DHT22;11828;51.508;18.118;2023-07-20T03:50:01;32.80;38.30
23311;DHT22;11828;51.508;18.118;2023-07-20T03:52:27;32.80;38.30
23311;DHT22;11828;51.508;18.118;2023-07-20T03:54:53;32.80;38.30
23311;DHT22;11828;51.508;18.118;2023-07-20T03:57:20;32.80;38.00
23311;DHT22;11828;51.508;18.118;2023-07-20T03:59:47;32.70;38.30
23311;DHT22;11828;51.508;18.118;2023-07-20T04:02:13;32.80;38.60
23311;DHT22;11828;51.508;18.118;2023-07-20T04:04:41;32.80;38.40
23311;DHT22;11828;51.508;18.118;2023-07-20T04:07:07;32.90;38.40
23311;DHT22;11828;51.508;18.118;2023-07-20T04:09:33;32.90;38.20
23311;DHT22;11828;51.508;18.118;2023-07-20T04:11:59;33.00;38.30
23311;DHT22;11828;51.508;18.118;2023-07-20T04:14:26;33.00;38.00
23311;DHT22;11828;51.508;18.118;2023-07-20T04:17:11;33.00;37.90
23311;DHT22;11828;51.508;18.118;2023-07-20T04:19:39;33.10;38.10
23311;DHT22;11828;51.508;18.118;2023-07-20T04:22:05;33.10;38.20
23311;DHT22;11828;51.508;18.118;2023-07-20T04:24:31;33.20;38.10
23311;DHT22;11828;51.508;18.118;2023-07-20T04:26:57;33.30;38.00
23311;DHT22;11828;51.508;18.118;2023-07-20T04:29:23;33.30;37.80
23311;DHT22;11828;51.508;18.118;2023-07-20T04:31:49;33.30;37.90
23311;DHT22;11828;51.508;18.118;2023-07-20T04:34:16;33.30;37.80
23311;DHT22;11828;51.508;18.118;2023-07-20T04:36:42;33.30;37.70
23311;DHT22;11828;51.508;18.118;2023-07-20T04:39:10;33.40;37.80
23311;DHT22;11828;51.508;18.118;2023-07-20T04:41:36;33.40;37.80
23311;DHT22;11828;51.508;18.118;2023-07-20T04:44:02;33.50;37.70
23311;DHT22;11828;51.508;18.118;2023-07-20T04:46:29;33.50;37.70
23311;DHT22;11828;51.508;18.118;2023-07-20T04:48:55;33.60;37.80
23311;DHT22;11828;51.508;18.118;2023-07-20T04:51:21;33.60;37.40
23311;DHT22;11828;51.508;18.118;2023-07-20T04:53:48;33.70;37.40
23311;DHT22;11828;51.508;18.118;2023-07-20T04:56:14;33.80;37.70
23311;DHT22;11828;51.508;18.118;2023-07-20T04:58:41;34.00;37.60
23311;DHT22;11828;51.508;18.118;2023-07-20T05:01:08;34.20;36.80
23311;DHT22;11828;51.508;18.118;2023-07-20T05:03:34;34.20;36.40
23311;DHT22;11828;51.508;18.118;2023-07-20T05:06:00;34.30;36.30
23311;DHT22;11828;51.508;18.118;2023-07-20T05:08:26;34.40;36.20
23311;DHT22;11828;51.508;18.118;2023-07-20T05:10:52;34.40;35.80
23311;DHT22;11828;51.508;18.118;2023-07-20T05:13:19;34.40;35.80
23311;DHT22;11828;51.508;18.118;2023-07-20T05:15:45;34.50;35.80
23311;DHT22;11828;51.508;18.118;2023-07-20T05:18:11;34.50;35.80
23311;DHT22;11828;51.508;18.118;2023-07-20T05:20:38;34.50;35.80
23311;DHT22;11828;51.508;18.118;2023-07-20T05:23:04;34.60;35.70
23311;DHT22;11828;51.508;18.118;2023-07-20T05:25:30;34.60;35.50
23311;DHT22;11828;51.508;18.118;2023-07-20T05:27:57;34.50;35.30
23311;DHT22;11828;51.508;18.118;2023-07-20T05:30:23;34.50;35.90
23311;DHT22;11828;51.508;18.118;2023-07-20T05:32:49;34.50;35.30
23311;DHT22;11828;51.508;18.118;2023-07-20T05:35:18;34.50;35.50
23311;DHT22;11828;51.508;18.118;2023-07-20T05:37:45;34.40;35.40
23311;DHT22;11828;51.508;18.118;2023-07-20T05:40:12;34.40;35.50
23311;DHT22;11828;51.508;18.118;2023-07-20T05:42:38;34.40;35.20
23311;DHT22;11828;51.508;18.118;2023-07-20T05:45:05;34.40;35.20
23311;DHT22;11828;51.508;18.118;2023-07-20T05:47:33;34.40;35.20
23311;DHT22;11828;51.508;18.118;2023-07-20T05:49:59;34.30;35.10
23311;DHT22;11828;51.508;18.118;2023-07-20T05:52:25;34.20;35.00
23311;DHT22;11828;51.508;18.118;2023-07-20T05:54:51;34.20;35.20
23311;DHT22;11828;51.508;18.118;2023-07-20T05:57:17;34.20;35.10
23311;DHT22;11828;51.508;18.118;2023-07-20T05:59:43;34.30;35.40
23311;DHT22;11828;51.508;18.118;2023-07-20T06:02:10;34.40;35.40
23311;DHT22;11828;51.508;18.118;2023-07-20T06:04:36;34.60;35.10
23311;DHT22;11828;51.508;18.118;2023-07-20T06:07:04;34.80;34.80
23311;DHT22;11828;51.508;18.118;2023-07-20T06:09:31;35.00;34.70
23311;DHT22;11828;51.508;18.118;2023-07-20T06:11:57;35.10;34.40
23311;DHT22;11828;51.508;18.118;2023-07-20T06:14:23;35.30;34.00
23311;DHT22;11828;51.508;18.118;2023-07-20T06:16:49;35.50;33.70
23311;DHT22;11828;51.508;18.118;2023-07-20T06:19:15;35.70;33.30
23311;DHT22;11828;51.508;18.118;2023-07-20T06:21:43;35.70;32.90
23311;DHT22;11828;51.508;18.118;2023-07-20T06:24:09;35.80;32.70
23311;DHT22;11828;51.508;18.118;2023-07-20T06:26:36;35.90;32.40
23311;DHT22;11828;51.508;18.118;2023-07-20T06:29:05;35.90;32.40
23311;DHT22;11828;51.508;18.118;2023-07-20T06:31:35;36.00;32.10
23311;DHT22;11828;51.508;18.118;2023-07-20T06:34:02;36.00;32.10
23311;DHT22;11828;51.508;18.118;2023-07-20T06:36:28;36.10;31.70
23311;DHT22;11828;51.508;18.118;2023-07-20T06:38:55;36.20;31.30
23311;DHT22;11828;51.508;18.118;2023-07-20T06:41:22;36.40;31.10
23311;DHT22;11828;51.508;18.118;2023-07-20T06:43:48;36.50;31.10
23311;DHT22;11828;51.508;18.118;2023-07-20T06:46:14;36.60;31.10
23311;DHT22;11828;51.508;18.118;2023-07-20T06:48:40;36.60;31.10
23311;DHT22;11828;51.508;18.118;2023-07-20T06:51:07;36.70;30.70
23311;DHT22;11828;51.508;18.118;2023-07-20T06:53:33;36.70;30.80
23311;DHT22;11828;51.508;18.118;2023-07-20T06:56:00;36.60;30.40
23311;DHT22;11828;51.508;18.118;2023-07-20T06:58:26;36.60;30.50
23311;DHT22;11828;51.508;18.118;2023-07-20T07:00:52;36.50;30.40
23311;DHT22;11828;51.508;18.118;2023-07-20T07:03:18;36.50;30.70
23311;DHT22;11828;51.508;18.118;2023-07-20T07:05:45;36.60;30.70
23311;DHT22;11828;51.508;18.118;2023-07-20T07:08:11;36.60;30.60
23311;DHT22;11828;51.508;18.118;2023-07-20T07:10:38;36.90;30.80
23311;DHT22;11828;51.508;18.118;2023-07-20T07:13:04;37.40;30.90
23311;DHT22;11828;51.508;18.118;2023-07-20T07:15:31;38.20;29.80
23311;DHT22;11828;51.508;18.118;2023-07-20T07:17:57;39.00;29.00
23311;DHT22;11828;51.508;18.118;2023-07-20T07:20:25;39.10;28.40
23311;DHT22;11828;51.508;18.118;2023-07-20T07:22:52;39.00;28.50
23311;DHT22;11828;51.508;18.118;2023-07-20T07:25:19;38.80;28.80
23311;DHT22;11828;51.508;18.118;2023-07-20T07:27:45;38.90;29.10
23311;DHT22;11828;51.508;18.118;2023-07-20T07:30:12;39.50;29.00
23311;DHT22;11828;51.508;18.118;2023-07-20T07:32:38;40.40;28.50
23311;DHT22;11828;51.508;18.118;2023-07-20T07:35:05;41.40;27.80
23311;DHT22;11828;51.508;18.118;2023-07-20T07:37:31;42.30;26.90
23311;DHT22;11828;51.508;18.118;2023-07-20T07:39:57;42.90;25.80
23311;DHT22;11828;51.508;18.118;2023-07-20T07:42:23;43.40;25.00
23311;DHT22;11828;51.508;18.118;2023-07-20T07:44:49;43.90;24.70
23311;DHT22;11828;51.508;18.118;2023-07-20T07:47:15;43.80;24.10
23311;DHT22;11828;51.508;18.118;2023-07-20T07:49:42;43.30;24.20
23311;DHT22;11828;51.508;18.118;2023-07-20T07:52:08;42.60;24.40
23311;DHT22;11828;51.508;18.118;2023-07-20T07:54:35;42.00;24.70
23311;DHT22;11828;51.508;18.118;2023-07-20T07:57:01;41.70;25.10
23311;DHT22;11828;51.508;18.118;2023-07-20T07:59:27;41.40;25.40
23311;DHT22;11828;51.508;18.118;2023-07-20T08:01:53;41.10;25.70
23311;DHT22;11828;51.508;18.118;2023-07-20T08:04:19;41.00;26.00
23311;DHT22;11828;51.508;18.118;2023-07-20T08:06:45;40.80;25.80
23311;DHT22;11828;51.508;18.118;2023-07-20T08:09:12;40.60;26.00
23311;DHT22;11828;51.508;18.118;2023-07-20T08:11:39;40.50;26.00
23311;DHT22;11828;51.508;18.118;2023-07-20T08:14:05;40.20;26.20
23311;DHT22;11828;51.508;18.118;2023-07-20T08:16:31;40.20;26.20
23311;DHT22;11828;51.508;18.118;2023-07-20T08:18:58;40.30;26.30
23311;DHT22;11828;51.508;18.118;2023-07-20T08:21:24;40.90;25.90
23311;DHT22;11828;51.508;18.118;2023-07-20T08:23:50;41.20;25.60
23311;DHT22;11828;51.508;18.118;2023-07-20T08:26:16;41.10;25.00
23311;DHT22;11828;51.508;18.118;2023-07-20T08:28:44;41.10;25.30
23311;DHT22;11828;51.508;18.118;2023-07-20T08:31:13;41.20;25.10
23311;DHT22;11828;51.508;18.118;2023-07-20T08:33:40;41.30;25.00
23311;DHT22;11828;51.508;18.118;2023-07-20T08:36:06;41.20;24.90
23311;DHT22;11828;51.508;18.118;2023-07-20T08:38:32;40.80;25.00
23311;DHT22;11828;51.508;18.118;2023-07-20T08:40:58;40.50;25.20
23311;DHT22;11828;51.508;18.118;2023-07-20T08:43:27;40.30;25.70
23311;DHT22;11828;51.508;18.118;2023-07-20T08:45:57;40.70;26.30
23311;DHT22;11828;51.508;18.118;2023-07-20T08:48:24;41.60;25.60
23311;DHT22;11828;51.508;18.118;2023-07-20T08:50:51;42.10;24.30
23311;DHT22;11828;51.508;18.118;2023-07-20T08:53:23;42.40;36.30
23311;DHT22;11828;51.508;18.118;2023-07-20T08:55:50;43.20;24.30
23311;DHT22;11828;51.508;18.118;2023-07-20T08:58:20;44.20;23.30
23311;DHT22;11828;51.508;18.118;2023-07-20T09:00:46;44.60;22.60
23311;DHT22;11828;51.508;18.118;2023-07-20T09:03:18;44.70;22.70
23311;DHT22;11828;51.508;18.118;2023-07-20T09:05:45;44.30;22.30
23311;DHT22;11828;51.508;18.118;2023-07-20T09:08:13;43.80;22.70
23311;DHT22;11828;51.508;18.118;2023-07-20T09:10:39;43.20;23.00
23311;DHT22;11828;51.508;18.118;2023-07-20T09:13:05;42.70;23.30
23311;DHT22;11828;51.508;18.118;2023-07-20T09:15:31;42.20;23.50
23311;DHT22;11828;51.508;18.118;2023-07-20T09:18:01;41.90;23.70
23311;DHT22;11828;51.508;18.118;2023-07-20T09:20:32;41.50;24.60
23311;DHT22;11828;51.508;18.118;2023-07-20T09:23:04;41.30;24.60
23311;DHT22;11828;51.508;18.118;2023-07-20T09:25:31;41.30;24.40
23311;DHT22;11828;51.508;18.118;2023-07-20T09:28:02;41.20;24.50
23311;DHT22;11828;51.508;18.118;2023-07-20T09:30:29;41.10;24.70
23311;DHT22;11828;51.508;18.118;2023-07-20T09:32:56;41.20;25.10
23311;DHT22;11828;51.508;18.118;2023-07-20T09:35:23;41.50;24.60
23311;DHT22;11828;51.508;18.118;2023-07-20T09:37:59;41.60;24.50
23311;DHT22;11828;51.508;18.118;2023-07-20T09:40:29;41.60;24.50
23311;DHT22;11828;51.508;18.118;2023-07-20T09:42:55;41.50;24.40
23311;DHT22;11828;51.508;18.118;2023-07-20T09:45:40;41.20;24.30
23311;DHT22;11828;51.508;18.118;2023-07-20T09:48:10;40.90;24.90
23311;DHT22;11828;51.508;18.118;2023-07-20T09:50:40;41.00;24.80
23311;DHT22;11828;51.508;18.118;2023-07-20T09:53:15;40.90;24.80
23311;DHT22;11828;51.508;18.118;2023-07-20T09:55:47;40.90;24.80
23311;DHT22;11828;51.508;18.118;2023-07-20T09:58:14;40.80;24.70
23311;DHT22;11828;51.508;18.118;2023-07-20T10:00:42;40.70;24.90
23311;DHT22;11828;51.508;18.118;2023-07-20T10:03:14;40.90;25.10
23311;DHT22;11828;51.508;18.118;2023-07-20T10:05:47;41.20;24.50
23311;DHT22;11828;51.508;18.118;2023-07-20T10:08:24;41.30;24.10
23311;DHT22;11828;51.508;18.118;2023-07-20T10:10:51;41.20;24.10
23311;DHT22;11828;51.508;18.118;2023-07-20T10:13:18;40.90;24.20
23311;DHT22;11828;51.508;18.118;2023-07-20T10:15:54;40.60;24.60
23311;DHT22;11828;51.508;18.118;2023-07-20T10:21:21;39.70;25.30
23311;DHT22;11828;51.508;18.118;2023-07-20T10:23:50;39.30;25.60
23311;DHT22;11828;51.508;18.118;2023-07-20T10:26:35;39.00;25.90
23311;DHT22;11828;51.508;18.118;2023-07-20T10:29:02;38.90;26.50
23311;DHT22;11828;51.508;18.118;2023-07-20T10:31:28;39.00;26.20
23311;DHT22;11828;51.508;18.118;2023-07-20T10:33:58;39.30;26.00
23311;DHT22;11828;51.508;18.118;2023-07-20T10:36:26;39.80;25.50
23311;DHT22;11828;51.508;18.118;2023-07-20T10:38:55;40.10;25.00
23311;DHT22;11828;51.508;18.118;2023-07-20T10:41:39;40.40;25.00
23311;DHT22;11828;51.508;18.118;2023-07-20T10:44:08;40.60;25.10
23311;DHT22;11828;51.508;18.118;2023-07-20T10:49:05;41.10;24.30
23311;DHT22;11828;51.508;18.118;2023-07-20T10:51:43;41.10;24.50
23311;DHT22;11828;51.508;18.118;2023-07-20T10:56:44;41.40;24.50
23311;DHT22;11828;51.508;18.118;2023-07-20T11:01:56;41.80;24.40
23311;DHT22;11828;51.508;18.118;2023-07-20T11:04:39;41.90;23.60
23311;DHT22;11828;51.508;18.118;2023-07-20T11:07:09;41.90;23.30
23311;DHT22;11828;51.508;18.118;2023-07-20T11:09:37;41.80;23.60
23311;DHT22;11828;51.508;18.118;2023-07-20T11:12:14;41.90;23.80
23311;DHT22;11828;51.508;18.118;2023-07-20T11:14:54;42.10;23.80
23311;DHT22;11828;51.508;18.118;2023-07-20T11:17:29;42.30;23.40
23311;DHT22;11828;51.508;18.118;2023-07-20T11:19:57;42.50;22.90
23311;DHT22;11828;51.508;18.118;2023-07-20T11:22:27;42.70;22.60
23311;DHT22;11828;51.508;18.118;2023-07-20T11:24:57;42.60;22.60
23311;DHT22;11828;51.508;18.118;2023-07-20T11:27:23;42.50;22.40
23311;DHT22;11828;51.508;18.118;2023-07-20T11:29:50;42.30;22.60
23311;DHT22;11828;51.508;18.118;2023-07-20T11:32:23;42.00;22.60
23311;DHT22;11828;51.508;18.118;2023-07-20T11:34:50;41.60;23.00
23311;DHT22;11828;51.508;18.118;2023-07-20T11:37:17;41.80;23.40
23311;DHT22;11828;51.508;18.118;2023-07-20T11:39:44;42.00;23.10
23311;DHT22;11828;51.508;18.118;2023-07-20T11:42:11;42.10;22.90
23311;DHT22;11828;51.508;18.118;2023-07-20T11:44:38;41.80;23.00
23311;DHT22;11828;51.508;18.118;2023-07-20T11:47:13;41.50;23.50
23311;DHT22;11828;51.508;18.118;2023-07-20T11:49:41;41.20;23.80
23311;DHT22;11828;51.508;18.118;2023-07-20T11:52:11;40.90;23.80
23311;DHT22;11828;51.508;18.118;2023-07-20T11:54:41;40.70;23.80
23311;DHT22;11828;51.508;18.118;2023-07-20T11:57:19;40.80;23.50
23311;DHT22;11828;51.508;18.118;2023-07-20T11:59:56;40.90;23.50
23311;DHT22;11828;51.508;18.118;2023-07-20T12:02:27;41.00;23.50
23311;DHT22;11828;51.508;18.118;2023-07-20T12:04:54;41.20;23.30
23311;DHT22;11828;51.508;18.118;2023-07-20T12:07:21;41.10;22.90
23311;DHT22;11828;51.508;18.118;2023-07-20T12:10:10;41.00;22.90
23311;DHT22;11828;51.508;18.118;2023-07-20T12:12:41;40.90;23.40
23311;DHT22;11828;51.508;18.118;2023-07-20T12:15:19;41.00;23.50
23311;DHT22;11828;51.508;18.118;2023-07-20T12:17:53;41.40;23.10
23311;DHT22;11828;51.508;18.118;2023-07-20T12:20:33;41.70;23.10
23311;DHT22;11828;51.508;18.118;2023-07-20T12:23:03;41.50;22.70
23311;DHT22;11828;51.508;18.118;2023-07-20T12:25:44;41.30;22.80
23311;DHT22;11828;51.508;18.118;2023-07-20T12:28:16;41.10;22.90
23311;DHT22;11828;51.508;18.118;2023-07-20T12:30:45;40.70;23.10
23311;DHT22;11828;51.508;18.118;2023-07-20T12:33:12;40.40;23.20
23311;DHT22;11828;51.508;18.118;2023-07-20T12:35:41;40.20;23.30
23311;DHT22;11828;51.508;18.118;2023-07-20T12:38:09;39.90;23.30
23311;DHT22;11828;51.508;18.118;2023-07-20T12:40:35;39.80;23.60
23311;DHT22;11828;51.508;18.118;2023-07-20T12:43:01;39.80;23.90
23311;DHT22;11828;51.508;18.118;2023-07-20T12:45:28;39.60;23.90
23311;DHT22;11828;51.508;18.118;2023-07-20T12:47:54;39.80;23.90
23311;DHT22;11828;51.508;18.118;2023-07-20T12:50:20;40.10;23.90
23311;DHT22;11828;51.508;18.118;2023-07-20T12:52:46;40.50;23.90
23311;DHT22;11828;51.508;18.118;2023-07-20T12:55:13;40.90;23.30
23311;DHT22;11828;51.508;18.118;2023-07-20T12:57:40;41.10;22.60
23311;DHT22;11828;51.508;18.118;2023-07-20T13:00:09;41.40;22.30
23311;DHT22;11828;51.508;18.118;2023-07-20T13:02:38;41.50;22.00
23311;DHT22;11828;51.508;18.118;2023-07-20T13:05:04;41.80;22.30
23311;DHT22;11828;51.508;18.118;2023-07-20T13:07:35;41.90;22.40
23311;DHT22;11828;51.508;18.118;2023-07-20T13:10:04;42.00;22.50
23311;DHT22;11828;51.508;18.118;2023-07-20T13:12:32;42.00;22.30
23311;DHT22;11828;51.508;18.118;2023-07-20T13:15:00;41.80;22.30
23311;DHT22;11828;51.508;18.118;2023-07-20T13:17:28;41.60;22.40
23311;DHT22;11828;51.508;18.118;2023-07-20T13:19:54;41.30;22.60
23311;DHT22;11828;51.508;18.118;2023-07-20T13:22:21;41.00;22.40
23311;DHT22;11828;51.508;18.118;2023-07-20T13:24:47;40.70;22.40
23311;DHT22;11828;51.508;18.118;2023-07-20T13:27:15;40.40;22.20
23311;DHT22;11828;51.508;18.118;2023-07-20T13:29:45;40.30;22.50
23311;DHT22;11828;51.508;18.118;2023-07-20T13:32:15;40.20;22.40
23311;DHT22;11828;51.508;18.118;2023-07-20T13:34:42;40.10;22.20
23311;DHT22;11828;51.508;18.118;2023-07-20T13:37:09;39.80;22.10
23311;DHT22;11828;51.508;18.118;2023-07-20T13:39:36;39.80;22.40
23311;DHT22;11828;51.508;18.118;2023-07-20T13:42:03;39.70;22.50
23311;DHT22;11828;51.508;18.118;2023-07-20T13:44:34;39.60;22.50
23311;DHT22;11828;51.508;18.118;2023-07-20T13:47:01;39.50;22.70
23311;DHT22;11828;51.508;18.118;2023-07-20T13:49:28;39.60;22.60
23311;DHT22;11828;51.508;18.118;2023-07-20T13:51:54;39.50;22.50
23311;DHT22;11828;51.508;18.118;2023-07-20T13:54:21;39.60;22.70
23311;DHT22;11828;51.508;18.118;2023-07-20T13:56:48;39.70;22.70
23311;DHT22;11828;51.508;18.118;2023-07-20T13:59:14;39.90;22.90
23311;DHT22;11828;51.508;18.118;2023-07-20T14:01:40;40.10;23.20
23311;DHT22;11828;51.508;18.118;2023-07-20T14:04:06;40.30;23.30
23311;DHT22;11828;51.508;18.118;2023-07-20T14:06:33;40.60;23.20
23311;DHT22;11828;51.508;18.118;2023-07-20T14:09:00;40.90;23.10
23311;DHT22;11828;51.508;18.118;2023-07-20T14:11:26;41.10;22.90
23311;DHT22;11828;51.508;18.118;2023-07-20T14:13:53;40.90;22.80
23311;DHT22;11828;51.508;18.118;2023-07-20T14:16:22;41.00;23.10
23311;DHT22;11828;51.508;18.118;2023-07-20T14:18:49;41.30;23.00
23311;DHT22;11828;51.508;18.118;2023-07-20T14:21:16;41.60;22.60
23311;DHT22;11828;51.508;18.118;2023-07-20T14:23:48;41.70;22.50
23311;DHT22;11828;51.508;18.118;2023-07-20T14:26:18;42.00;22.20
23311;DHT22;11828;51.508;18.118;2023-07-20T14:28:45;42.40;22.00
23311;DHT22;11828;51.508;18.118;2023-07-20T14:31:11;42.90;21.70
23311;DHT22;11828;51.508;18.118;2023-07-20T14:33:38;43.10;21.30
23311;DHT22;11828;51.508;18.118;2023-07-20T14:36:04;43.30;21.20
23311;DHT22;11828;51.508;18.118;2023-07-20T14:38:31;43.60;20.80
23311;DHT22;11828;51.508;18.118;2023-07-20T14:40:58;43.40;20.50
23311;DHT22;11828;51.508;18.118;2023-07-20T14:43:25;43.10;20.90
23311;DHT22;11828;51.508;18.118;2023-07-20T14:45:51;42.80;21.00
23311;DHT22;11828;51.508;18.118;2023-07-20T14:48:18;42.70;21.00
23311;DHT22;11828;51.508;18.118;2023-07-20T14:50:44;42.90;21.20
23311;DHT22;11828;51.508;18.118;2023-07-20T14:53:13;43.30;21.20
23311;DHT22;11828;51.508;18.118;2023-07-20T14:55:41;43.40;21.20
23311;DHT22;11828;51.508;18.118;2023-07-20T14:58:08;43.20;21.70
23311;DHT22;11828;51.508;18.118;2023-07-20T15:00:34;42.80;21.90
23311;DHT22;11828;51.508;18.118;2023-07-20T15:03:00;42.30;23.20
23311;DHT22;11828;51.508;18.118;2023-07-20T15:05:27;41.80;24.80
23311;DHT22;11828;51.508;18.118;2023-07-20T15:07:53;41.20;26.90
23311;DHT22;11828;51.508;18.118;2023-07-20T15:10:19;40.60;28.50
23311;DHT22;11828;51.508;18.118;2023-07-20T15:12:47;40.00;28.40
23311;DHT22;11828;51.508;18.118;2023-07-20T15:15:14;39.50;28.80
23311;DHT22;11828;51.508;18.118;2023-07-20T15:17:43;39.00;29.70
23311;DHT22;11828;51.508;18.118;2023-07-20T15:20:12;38.60;29.30
23311;DHT22;11828;51.508;18.118;2023-07-20T15:22:40;38.30;29.90
23311;DHT22;11828;51.508;18.118;2023-07-20T15:25:07;38.00;30.00
23311;DHT22;11828;51.508;18.118;2023-07-20T15:27:34;37.60;32.20
23311;DHT22;11828;51.508;18.118;2023-07-20T15:30:00;37.20;31.80
23311;DHT22;11828;51.508;18.118;2023-07-20T15:32:27;36.80;32.60
23311;DHT22;11828;51.508;18.118;2023-07-20T15:34:53;36.50;33.50